sensor_id;sensor_type;location;lat;lon;timestamp;pressure;altitude;pressure_sealevel;temperature;humidity
20424;BME280;10371;49.042;8.002;2024-03-23T00:51:22;99086.78;;;12.01;90.64
20424;BME280;10371;49.042;8.002;2024-03-23T00:54:24;99095.25;;;12.03;90.26
20424;BME280;10371;49.042;8.002;2024-03-23T00:55:24;99087.09;;;11.98;90.43
20424;BME280;10371;49.042;8.002;2024-03-23T00:56:24;99083.81;;;11.96;90.53
20424;BME280;10371;49.042;8.002;2024-03-23T00:57:25;99076.13;;;11.95;90.83
20424;BME280;10371;49.042;8.002;2024-03-23T00:58:25;99075.31;;;11.94;91.03
20424;BME280;10371;49.042;8.002;2024-03-23T00:59:25;99078.88;;;11.93;91.29
20424;BME280;10371;49.042;8.002;2024-03-23T01:00:28;99076.28;;;11.93;91.61
20424;BME280;10371;49.042;8.002;2024-03-23T01:01:28;99066.81;;;11.92;91.75
20424;BME280;10371;49.042;8.002;2024-03-23T01:02:29;99071.19;;;11.92;92.07
20424;BME280;10371;49.042;8.002;2024-03-23T01:03:30;99077.22;;;11.92;92.18
20424;BME280;10371;49.042;8.002;2024-03-23T01:04:30;99069.41;;;11.92;92.37
20424;BME280;10371;49.042;8.002;2024-03-23T01:05:30;99070.25;;;11.93;92.55
20424;BME280;10371;49.042;8.002;2024-03-23T01:06:31;99069.56;;;11.91;92.64
20424;BME280;10371;49.042;8.002;2024-03-23T01:07:31;99069.41;;;11.92;92.77
20424;BME280;10371;49.042;8.002;2024-03-23T01:08:32;99068.47;;;11.93;92.78
20424;BME280;10371;49.042;8.002;2024-03-23T01:09:32;99071.28;;;12.00;92.83
20424;BME280;10371;49.042;8.002;2024-03-23T01:10:32;99070.31;;;12.01;92.80
20424;BME280;10371;49.042;8.002;2024-03-23T01:11:32;99069.16;;;12.03;92.65
20424;BME280;10371;49.042;8.002;2024-03-23T01:12:33;99074.09;;;12.06;92.24
20424;BME280;10371;49.042;8.002;2024-03-23T01:13:33;99062.69;;;12.07;92.38
20424;BME280;10371;49.042;8.002;2024-03-23T01:14:33;99064.31;;;12.08;92.14
20424;BME280;10371;49.042;8.002;2024-03-23T01:15:36;99062.09;;;12.14;91.86
20424;BME280;10371;49.042;8.002;2024-03-23T01:16:36;99057.53;;;12.16;91.67
20424;BME280;10371;49.042;8.002;2024-03-23T01:17:36;99060.16;;;12.16;91.44
20424;BME280;10371;49.042;8.002;2024-03-23T01:18:36;99059.16;;;12.17;91.30
20424;BME280;10371;49.042;8.002;2024-03-23T01:19:37;99053.31;;;12.15;91.08
20424;BME280;10371;49.042;8.002;2024-03-23T01:20:39;99054.25;;;12.14;90.96
20424;BME280;10371;49.042;8.002;2024-03-23T01:21:39;99045.09;;;12.10;90.95
20424;BME280;10371;49.042;8.002;2024-03-23T01:22:40;99049.66;;;12.07;90.96
20424;BME280;10371;49.042;8.002;2024-03-23T01:23:41;99051.88;;;12.02;91.07
20424;BME280;10371;49.042;8.002;2024-03-23T01:24:42;99051.38;;;11.99;91.16
20424;BME280;10371;49.042;8.002;2024-03-23T01:25:42;99053.47;;;11.95;91.19
20424;BME280;10371;49.042;8.002;2024-03-23T01:26:42;99047.72;;;11.92;91.47
20424;BME280;10371;49.042;8.002;2024-03-23T01:27:43;99041.03;;;11.89;91.46
20424;BME280;10371;49.042;8.002;2024-03-23T01:28:43;99045.72;;;11.85;91.53
20424;BME280;10371;49.042;8.002;2024-03-23T01:29:43;99050.09;;;11.85;91.58
20424;BME280;10371;49.042;8.002;2024-03-23T01:30:43;99049.28;;;11.84;91.83
20424;BME280;10371;49.042;8.002;2024-03-23T01:31:44;99044.06;;;11.84;91.98
20424;BME280;10371;49.042;8.002;2024-03-23T01:32:44;99044.63;;;11.88;92.18
20424;BME280;10371;49.042;8.002;2024-03-23T01:33:44;99044.81;;;11.95;92.23
20424;BME280;10371;49.042;8.002;2024-03-23T01:34:45;99050.41;;;12.00;92.11
20424;BME280;10371;49.042;8.002;2024-03-23T01:35:45;99044.44;;;12.07;91.69
20424;BME280;10371;49.042;8.002;2024-03-23T01:36:45;99043.31;;;12.10;91.48
20424;BME280;10371;49.042;8.002;2024-03-23T01:37:46;99037.66;;;12.15;91.14
20424;BME280;10371;49.042;8.002;2024-03-23T01:38:46;99036.22;;;12.20;90.66
20424;BME280;10371;49.042;8.002;2024-03-23T01:39:47;99032.97;;;12.26;90.09
20424;BME280;10371;49.042;8.002;2024-03-23T01:40:47;99037.25;;;12.36;89.63
20424;BME280;10371;49.042;8.002;2024-03-23T01:41:47;99036.13;;;12.38;89.01
20424;BME280;10371;49.042;8.002;2024-03-23T01:43:07;99025.88;;;12.45;88.63
20424;BME280;10371;49.042;8.002;2024-03-23T01:44:10;99033.25;;;12.49;87.95
20424;BME280;10371;49.042;8.002;2024-03-23T01:45:11;99028.75;;;12.60;87.79
20424;BME280;10371;49.042;8.002;2024-03-23T01:46:11;99029.56;;;12.60;87.14
20424;BME280;10371;49.042;8.002;2024-03-23T01:47:11;99031.06;;;12.63;86.92
20424;BME280;10371;49.042;8.002;2024-03-23T01:48:12;99031.53;;;12.66;86.80
20424;BME280;10371;49.042;8.002;2024-03-23T01:49:12;99031.09;;;12.71;86.63
20424;BME280;10371;49.042;8.002;2024-03-23T01:50:13;99020.00;;;12.77;86.06
20424;BME280;10371;49.042;8.002;2024-03-23T01:51:14;99027.66;;;12.79;85.75
20424;BME280;10371;49.042;8.002;2024-03-23T01:52:14;99030.44;;;12.77;85.77
20424;BME280;10371;49.042;8.002;2024-03-23T01:53:15;99018.66;;;12.73;85.86
20424;BME280;10371;49.042;8.002;2024-03-23T01:54:17;99010.19;;;12.71;85.85
20424;BME280;10371;49.042;8.002;2024-03-23T01:55:19;99008.22;;;12.73;85.72
20424;BME280;10371;49.042;8.002;2024-03-23T01:56:20;99012.16;;;12.77;85.46
20424;BME280;10371;49.042;8.002;2024-03-23T01:57:20;99007.94;;;12.76;85.38
20424;BME280;10371;49.042;8.002;2024-03-23T01:58:20;99006.59;;;12.72;85.48
20424;BME280;10371;49.042;8.002;2024-03-23T01:59:21;99013.44;;;12.73;85.51
20424;BME280;10371;49.042;8.002;2024-03-23T02:00:21;99007.63;;;12.79;85.31
20424;BME280;10371;49.042;8.002;2024-03-23T02:01:23;99003.19;;;12.80;85.19
20424;BME280;10371;49.042;8.002;2024-03-23T02:02:23;99009.13;;;12.90;84.87
20424;BME280;10371;49.042;8.002;2024-03-23T02:03:27;99007.97;;;12.92;84.63
20424;BME280;10371;49.042;8.002;2024-03-23T02:04:27;99008.31;;;12.97;84.37
20424;BME280;10371;49.042;8.002;2024-03-23T02:05:28;99016.00;;;12.99;84.11
20424;BME280;10371;49.042;8.002;2024-03-23T02:06:28;99009.63;;;12.93;84.16
20424;BME280;10371;49.042;8.002;2024-03-23T02:07:29;99008.16;;;12.99;84.23
20424;BME280;10371;49.042;8.002;2024-03-23T02:08:29;99007.34;;;12.99;84.03
20424;BME280;10371;49.042;8.002;2024-03-23T02:09:31;99007.19;;;13.00;83.94
20424;BME280;10371;49.042;8.002;2024-03-23T02:10:32;99010.91;;;12.97;84.03
20424;BME280;10371;49.042;8.002;2024-03-23T02:11:32;99019.28;;;13.01;83.95
20424;BME280;10371;49.042;8.002;2024-03-23T02:12:32;99014.53;;;12.96;84.04
20424;BME280;10371;49.042;8.002;2024-03-23T02:13:32;99010.09;;;12.97;84.07
20424;BME280;10371;49.042;8.002;2024-03-23T02:14:33;99009.28;;;12.96;84.05
20424;BME280;10371;49.042;8.002;2024-03-23T02:15:33;99020.88;;;12.94;84.03
20424;BME280;10371;49.042;8.002;2024-03-23T02:16:34;99014.84;;;12.93;84.35
20424;BME280;10371;49.042;8.002;2024-03-23T02:17:35;99016.13;;;12.89;84.49
20424;BME280;10371;49.042;8.002;2024-03-23T02:18:35;99021.53;;;12.88;84.65
20424;BME280;10371;49.042;8.002;2024-03-23T02:19:36;99018.25;;;12.86;84.91
20424;BME280;10371;49.042;8.002;2024-03-23T02:20:37;99013.19;;;12.84;84.81
20424;BME280;10371;49.042;8.002;2024-03-23T02:21:37;99004.16;;;12.79;85.09
20424;BME280;10371;49.042;8.002;2024-03-23T02:22:38;99008.88;;;12.75;85.24
20424;BME280;10371;49.042;8.002;2024-03-23T02:23:38;99011.69;;;12.73;85.27
20424;BME280;10371;49.042;8.002;2024-03-23T02:24:39;99016.06;;;12.73;85.48
20424;BME280;10371;49.042;8.002;2024-03-23T02:25:39;99010.50;;;12.68;85.68
20424;BME280;10371;49.042;8.002;2024-03-23T02:26:39;99014.41;;;12.64;85.84
20424;BME280;10371;49.042;8.002;2024-03-23T02:27:39;99010.16;;;12.63;85.98
20424;BME280;10371;49.042;8.002;2024-03-23T02:28:40;99016.97;;;12.56;86.18
20424;BME280;10371;49.042;8.002;2024-03-23T02:29:40;99014.84;;;12.51;86.66
20424;BME280;10371;49.042;8.002;2024-03-23T02:30:40;99006.66;;;12.46;86.82
20424;BME280;10371;49.042;8.002;2024-03-23T02:31:41;99020.16;;;12.41;87.06
20424;BME280;10371;49.042;8.002;2024-03-23T02:32:41;99020.16;;;12.41;87.49
20424;BME280;10371;49.042;8.002;2024-03-23T02:33:41;99018.84;;;12.37;87.43
20424;BME280;10371;49.042;8.002;2024-03-23T02:34:42;99017.50;;;12.33;87.65
20424;BME280;10371;49.042;8.002;2024-03-23T02:35:43;99016.56;;;12.34;87.58
20424;BME280;10371;49.042;8.002;2024-03-23T02:36:44;99013.41;;;12.30;87.96
20424;BME280;10371;49.042;8.002;2024-03-23T02:37:46;99021.56;;;12.27;87.99
20424;BME280;10371;49.042;8.002;2024-03-23T02:38:46;99014.84;;;12.25;88.27
20424;BME280;10371;49.042;8.002;2024-03-23T02:39:47;99016.50;;;12.26;88.39
20424;BME280;10371;49.042;8.002;2024-03-23T02:40:47;99005.22;;;12.25;88.44
20424;BME280;10371;49.042;8.002;2024-03-23T02:41:47;99002.78;;;12.24;88.55
20424;BME280;10371;49.042;8.002;2024-03-23T02:42:48;98999.50;;;12.22;88.53
20424;BME280;10371;49.042;8.002;2024-03-23T02:43:49;98997.88;;;12.21;88.60
20424;BME280;10371;49.042;8.002;2024-03-23T02:44:49;98992.50;;;12.22;88.75
20424;BME280;10371;49.042;8.002;2024-03-23T02:45:50;98989.88;;;12.22;88.79
20424;BME280;10371;49.042;8.002;2024-03-23T02:46:50;98989.38;;;12.19;88.83
20424;BME280;10371;49.042;8.002;2024-03-23T02:47:50;98986.78;;;12.19;88.89
20424;BME280;10371;49.042;8.002;2024-03-23T02:48:53;98991.69;;;12.22;88.67
20424;BME280;10371;49.042;8.002;2024-03-23T02:49:54;98997.06;;;12.20;88.70
20424;BME280;10371;49.042;8.002;2024-03-23T02:50:55;98997.06;;;12.20;88.61
20424;BME280;10371;49.042;8.002;2024-03-23T02:51:55;98989.75;;;12.24;88.67
20424;BME280;10371;49.042;8.002;2024-03-23T02:52:55;98993.97;;;12.25;88.39
20424;BME280;10371;49.042;8.002;2024-03-23T02:53:56;98996.75;;;12.23;88.45
20424;BME280;10371;49.042;8.002;2024-03-23T02:54:57;98985.47;;;12.23;88.40
20424;BME280;10371;49.042;8.002;2024-03-23T02:55:58;98990.69;;;12.23;88.35
20424;BME280;10371;49.042;8.002;2024-03-23T02:56:58;98987.59;;;12.19;88.27
20424;BME280;10371;49.042;8.002;2024-03-23T02:57:58;98992.66;;;12.21;88.53
20424;BME280;10371;49.042;8.002;2024-03-23T02:59:01;99003.41;;;12.18;88.68
20424;BME280;10371;49.042;8.002;2024-03-23T03:00:02;99000.81;;;12.18;88.63
20424;BME280;10371;49.042;8.002;2024-03-23T03:01:03;98997.34;;;12.17;88.73
20424;BME280;10371;49.042;8.002;2024-03-23T03:02:04;99004.22;;;12.18;88.70
20424;BME280;10371;49.042;8.002;2024-03-23T03:03:04;99003.41;;;12.18;88.44
20424;BME280;10371;49.042;8.002;2024-03-23T03:04:05;99000.50;;;12.21;88.38
20424;BME280;10371;49.042;8.002;2024-03-23T03:05:06;99000.81;;;12.18;88.28
20424;BME280;10371;49.042;8.002;2024-03-23T03:06:06;99008.63;;;12.18;88.56
20424;BME280;10371;49.042;8.002;2024-03-23T03:07:06;99006.97;;;12.17;88.69
20424;BME280;10371;49.042;8.002;2024-03-23T03:08:06;98998.50;;;12.15;88.92
20424;BME280;10371;49.042;8.002;2024-03-23T03:09:07;99005.66;;;12.13;89.20
20424;BME280;10371;49.042;8.002;2024-03-23T03:10:08;99008.94;;;12.15;89.10
20424;BME280;10371;49.042;8.002;2024-03-23T03:11:11;99007.28;;;12.14;89.20
20424;BME280;10371;49.042;8.002;2024-03-23T03:12:11;99003.19;;;12.11;89.31
20424;BME280;10371;49.042;8.002;2024-03-23T03:13:11;99002.38;;;12.11;89.23
20424;BME280;10371;49.042;8.002;2024-03-23T03:14:12;98999.94;;;12.09;89.42
20424;BME280;10371;49.042;8.002;2024-03-23T03:15:12;98992.25;;;12.07;89.24
20424;BME280;10371;49.042;8.002;2024-03-23T03:16:13;99002.69;;;12.07;89.07
20424;BME280;10371;49.042;8.002;2024-03-23T03:17:13;98999.09;;;12.08;88.58
20424;BME280;10371;49.042;8.002;2024-03-23T03:18:13;99003.66;;;12.06;88.51
20424;BME280;10371;49.042;8.002;2024-03-23T03:19:14;99008.72;;;12.08;88.40
20424;BME280;10371;49.042;8.002;2024-03-23T03:20:14;99004.00;;;12.12;88.09
20424;BME280;10371;49.042;8.002;2024-03-23T03:21:15;99006.03;;;12.18;87.87
20424;BME280;10371;49.042;8.002;2024-03-23T03:22:16;99016.47;;;12.18;87.16
20424;BME280;10371;49.042;8.002;2024-03-23T03:23:16;99015.47;;;12.19;86.68
20424;BME280;10371;49.042;8.002;2024-03-23T03:24:18;99013.53;;;12.21;86.67
20424;BME280;10371;49.042;8.002;2024-03-23T03:25:18;99013.06;;;12.25;86.30
20424;BME280;10371;49.042;8.002;2024-03-23T03:26:18;99004.78;;;12.30;86.04
20424;BME280;10371;49.042;8.002;2024-03-23T03:27:18;99001.84;;;12.33;85.12
20424;BME280;10371;49.042;8.002;2024-03-23T03:28:19;98996.84;;;12.40;84.60
20424;BME280;10371;49.042;8.002;2024-03-23T03:29:20;99001.94;;;12.49;83.89
20424;BME280;10371;49.042;8.002;2024-03-23T03:30:20;98995.75;;;12.59;83.48
20424;BME280;10371;49.042;8.002;2024-03-23T03:31:20;98999.38;;;12.58;83.25
20424;BME280;10371;49.042;8.002;2024-03-23T03:32:21;99001.63;;;12.52;83.38
20424;BME280;10371;49.042;8.002;2024-03-23T03:33:21;98992.78;;;12.45;83.55
20424;BME280;10371;49.042;8.002;2024-03-23T03:34:22;98993.13;;;12.50;83.76
20424;BME280;10371;49.042;8.002;2024-03-23T03:35:22;98993.47;;;12.56;83.11
20424;BME280;10371;49.042;8.002;2024-03-23T03:36:22;98994.13;;;12.58;83.26
20424;BME280;10371;49.042;8.002;2024-03-23T03:37:22;98980.75;;;12.52;83.31
20424;BME280;10371;49.042;8.002;2024-03-23T03:38:23;98982.84;;;12.49;83.20
20424;BME280;10371;49.042;8.002;2024-03-23T03:39:24;98985.16;;;12.52;83.22
20424;BME280;10371;49.042;8.002;2024-03-23T03:40:24;98987.75;;;12.52;83.22
20424;BME280;10371;49.042;8.002;2024-03-23T03:41:25;98976.84;;;12.57;83.34
20424;BME280;10371;49.042;8.002;2024-03-23T03:42:25;98980.09;;;12.59;83.04
20424;BME280;10371;49.042;8.002;2024-03-23T03:43:26;98973.56;;;12.55;82.79
20424;BME280;10371;49.042;8.002;2024-03-23T03:44:26;98977.66;;;12.57;82.67
20424;BME280;10371;49.042;8.002;2024-03-23T03:45:26;98970.97;;;12.55;82.38
20424;BME280;10371;49.042;8.002;2024-03-23T03:46:27;98970.28;;;12.52;82.53
20424;BME280;10371;49.042;8.002;2024-03-23T03:47:28;98969.66;;;12.59;82.32
20424;BME280;10371;49.042;8.002;2024-03-23T03:48:28;98971.91;;;12.53;82.05
20424;BME280;10371;49.042;8.002;2024-03-23T03:49:28;98974.88;;;12.59;82.03
20424;BME280;10371;49.042;8.002;2024-03-23T03:50:29;98977.81;;;12.56;82.22
20424;BME280;10371;49.042;8.002;2024-03-23T03:51:29;98981.41;;;12.55;82.40
20424;BME280;10371;49.042;8.002;2024-03-23T03:52:29;98987.59;;;12.53;82.39
20424;BME280;10371;49.042;8.002;2024-03-23T03:53:30;98980.75;;;12.52;82.41
20424;BME280;10371;49.042;8.002;2024-03-23T03:54:30;98980.59;;;12.54;82.60
20424;BME280;10371;49.042;8.002;2024-03-23T03:55:31;98983.00;;;12.47;82.75
20424;BME280;10371;49.042;8.002;2024-03-23T03:56:32;98984.44;;;12.42;82.78
20424;BME280;10371;49.042;8.002;2024-03-23T03:57:32;98987.22;;;12.40;83.28
20424;BME280;10371;49.042;8.002;2024-03-23T03:58:32;98977.13;;;12.45;83.25
20424;BME280;10371;49.042;8.002;2024-03-23T03:59:33;98973.19;;;12.41;83.04
20424;BME280;10371;49.042;8.002;2024-03-23T04:00:33;98982.31;;;12.37;83.19
20424;BME280;10371;49.042;8.002;2024-03-23T04:01:33;98986.50;;;12.30;83.28
20424;BME280;10371;49.042;8.002;2024-03-23T04:02:34;98975.63;;;12.35;83.30
20424;BME280;10371;49.042;8.002;2024-03-23T04:03:34;98984.56;;;12.32;83.09
20424;BME280;10371;49.042;8.002;2024-03-23T04:04:34;98984.22;;;12.27;83.33
20424;BME280;10371;49.042;8.002;2024-03-23T04:05:35;98980.44;;;12.21;83.56
20424;BME280;10371;49.042;8.002;2024-03-23T04:06:35;98987.75;;;12.18;83.73
20424;BME280;10371;49.042;8.002;2024-03-23T04:07:35;98991.38;;;12.25;83.53
20424;BME280;10371;49.042;8.002;2024-03-23T04:08:35;98997.88;;;12.21;83.39
20424;BME280;10371;49.042;8.002;2024-03-23T04:09:36;99001.94;;;12.15;83.66
20424;BME280;10371;49.042;8.002;2024-03-23T04:10:36;98997.34;;;12.17;83.62
20424;BME280;10371;49.042;8.002;2024-03-23T04:11:37;98999.69;;;12.20;83.69
20424;BME280;10371;49.042;8.002;2024-03-23T04:12:37;98992.66;;;12.21;83.57
20424;BME280;10371;49.042;8.002;2024-03-23T04:13:38;99003.91;;;12.21;83.46
20424;BME280;10371;49.042;8.002;2024-03-23T04:14:38;99000.00;;;12.25;83.17
20424;BME280;10371;49.042;8.002;2024-03-23T04:15:38;99001.13;;;12.23;83.06
20424;BME280;10371;49.042;8.002;2024-03-23T04:16:39;99006.97;;;12.17;83.28
20424;BME280;10371;49.042;8.002;2024-03-23T04:17:40;98994.91;;;12.16;83.60
20424;BME280;10371;49.042;8.002;2024-03-23T04:18:42;98998.50;;;12.15;83.39
20424;BME280;10371;49.042;8.002;2024-03-23T04:19:44;99007.16;;;12.15;83.60
20424;BME280;10371;49.042;8.002;2024-03-23T04:20:44;98999.47;;;12.14;83.75
20424;BME280;10371;49.042;8.002;2024-03-23T04:21:45;98999.94;;;12.09;83.62
20424;BME280;10371;49.042;8.002;2024-03-23T04:22:45;98985.56;;;12.05;83.84
20424;BME280;10371;49.042;8.002;2024-03-23T04:23:45;99007.91;;;12.07;83.88
20424;BME280;10371;49.042;8.002;2024-03-23T04:24:46;99014.06;;;11.98;83.39
20424;BME280;10371;49.042;8.002;2024-03-23T04:25:46;99008.00;;;11.98;82.99
20424;BME280;10371;49.042;8.002;2024-03-23T04:26:46;99014.38;;;12.03;82.86
20424;BME280;10371;49.042;8.002;2024-03-23T04:27:47;99011.63;;;12.05;81.79
20424;BME280;10371;49.042;8.002;2024-03-23T04:28:47;99018.34;;;12.07;81.13
20424;BME280;10371;49.042;8.002;2024-03-23T04:29:51;99002.00;;;12.05;80.62
20424;BME280;10371;49.042;8.002;2024-03-23T04:30:51;99007.53;;;12.02;80.75
20424;BME280;10371;49.042;8.002;2024-03-23T04:31:52;99013.75;;;12.01;81.27
20424;BME280;10371;49.042;8.002;2024-03-23T04:32:52;99003.13;;;12.03;81.12
20424;BME280;10371;49.042;8.002;2024-03-23T04:33:52;99001.16;;;11.97;80.57
20424;BME280;10371;49.042;8.002;2024-03-23T04:34:53;98996.91;;;11.96;80.76
20424;BME280;10371;49.042;8.002;2024-03-23T04:35:53;98995.13;;;11.96;80.54
20424;BME280;10371;49.042;8.002;2024-03-23T04:36:54;98989.41;;;11.93;80.31
20424;BME280;10371;49.042;8.002;2024-03-23T04:37:54;98994.75;;;11.91;80.00
20424;BME280;10371;49.042;8.002;2024-03-23T04:38:57;98995.56;;;11.92;79.53
20424;BME280;10371;49.042;8.002;2024-03-23T04:39:57;99006.31;;;11.89;79.33
20424;BME280;10371;49.042;8.002;2024-03-23T04:40:59;98998.09;;;11.83;79.25
20424;BME280;10371;49.042;8.002;2024-03-23T04:41:59;99006.69;;;11.76;79.66
20424;BME280;10371;49.042;8.002;2024-03-23T04:42:59;99008.84;;;11.62;80.55
20424;BME280;10371;49.042;8.002;2024-03-23T04:44:01;99016.00;;;11.60;81.63
20424;BME280;10371;49.042;8.002;2024-03-23T04:45:02;99005.81;;;11.49;82.26
20424;BME280;10371;49.042;8.002;2024-03-23T04:46:02;99003.00;;;11.43;83.47
20424;BME280;10371;49.042;8.002;2024-03-23T04:47:03;99008.25;;;11.33;84.51
20424;BME280;10371;49.042;8.002;2024-03-23T04:48:03;99007.88;;;11.28;85.57
20424;BME280;10371;49.042;8.002;2024-03-23T04:49:03;99011.59;;;11.25;85.82
20424;BME280;10371;49.042;8.002;2024-03-23T04:50:05;99015.31;;;11.23;86.50
20424;BME280;10371;49.042;8.002;2024-03-23T04:51:05;99016.81;;;11.25;86.29
20424;BME280;10371;49.042;8.002;2024-03-23T04:52:05;99023.59;;;11.18;86.33
20424;BME280;10371;49.042;8.002;2024-03-23T04:53:05;99018.53;;;11.16;86.62
20424;BME280;10371;49.042;8.002;2024-03-23T04:54:06;99017.63;;;11.08;86.63
20424;BME280;10371;49.042;8.002;2024-03-23T04:55:06;99009.81;;;11.08;86.93
20424;BME280;10371;49.042;8.002;2024-03-23T04:56:07;99007.38;;;11.06;87.11
20424;BME280;10371;49.042;8.002;2024-03-23T04:57:07;99016.13;;;11.05;87.27
20424;BME280;10371;49.042;8.002;2024-03-23T04:58:07;99031.00;;;10.95;87.55
20424;BME280;10371;49.042;8.002;2024-03-23T04:59:07;99040.44;;;10.96;87.80
20424;BME280;10371;49.042;8.002;2024-03-23T05:00:09;99032.94;;;10.93;88.44
20424;BME280;10371;49.042;8.002;2024-03-23T05:01:16;99034.03;;;10.90;89.01
20424;BME280;10371;49.042;8.002;2024-03-23T05:02:17;99025.41;;;10.90;89.15
20424;BME280;10371;49.042;8.002;2024-03-23T05:03:17;99024.22;;;10.84;89.09
20424;BME280;10371;49.042;8.002;2024-03-23T05:04:17;99010.94;;;10.78;89.32
20424;BME280;10371;49.042;8.002;2024-03-23T05:05:18;99017.41;;;10.73;89.19
20424;BME280;10371;49.042;8.002;2024-03-23T05:06:18;99014.13;;;10.71;89.54
20424;BME280;10371;49.042;8.002;2024-03-23T05:07:19;99014.72;;;10.65;89.75
20424;BME280;10371;49.042;8.002;2024-03-23T05:08:19;99020.19;;;10.62;89.82
20424;BME280;10371;49.042;8.002;2024-03-23T05:09:19;99027.63;;;10.57;89.66
20424;BME280;10371;49.042;8.002;2024-03-23T05:10:20;99020.78;;;10.56;89.74
20424;BME280;10371;49.042;8.002;2024-03-23T05:11:20;99032.59;;;10.50;89.65
20424;BME280;10371;49.042;8.002;2024-03-23T05:12:20;99027.50;;;10.49;90.02
20424;BME280;10371;49.042;8.002;2024-03-23T05:13:21;99030.50;;;10.54;90.08
20424;BME280;10371;49.042;8.002;2024-03-23T05:14:21;99020.38;;;10.51;90.14
20424;BME280;10371;49.042;8.002;2024-03-23T05:15:21;99023.41;;;10.46;89.72
20424;BME280;10371;49.042;8.002;2024-03-23T05:16:22;99022.72;;;10.44;90.14
20424;BME280;10371;49.042;8.002;2024-03-23T05:17:22;99022.19;;;10.41;90.26
20424;BME280;10371;49.042;8.002;2024-03-23T05:18:23;99022.78;;;10.35;90.51
20424;BME280;10371;49.042;8.002;2024-03-23T05:19:26;99024.97;;;10.29;90.62
20424;BME280;10371;49.042;8.002;2024-03-23T05:20:27;99030.16;;;10.29;90.89
20424;BME280;10371;49.042;8.002;2024-03-23T05:21:27;99034.28;;;10.22;90.70
20424;BME280;10371;49.042;8.002;2024-03-23T05:22:30;99031.00;;;10.20;90.52
20424;BME280;10371;49.042;8.002;2024-03-23T05:23:31;99030.88;;;10.12;89.55
20424;BME280;10371;49.042;8.002;2024-03-23T05:24:31;99035.38;;;10.10;89.51
20424;BME280;10371;49.042;8.002;2024-03-23T05:25:31;99045.66;;;10.12;89.55
20424;BME280;10371;49.042;8.002;2024-03-23T05:26:32;99039.38;;;10.04;90.26
20424;BME280;10371;49.042;8.002;2024-03-23T05:27:34;99052.66;;;10.01;90.34
20424;BME280;10371;49.042;8.002;2024-03-23T05:28:34;99044.97;;;10.00;90.89
20424;BME280;10371;49.042;8.002;2024-03-23T05:29:34;99044.16;;;9.99;90.52
20424;BME280;10371;49.042;8.002;2024-03-23T05:30:34;99065.38;;;10.04;89.85
20424;BME280;10371;49.042;8.002;2024-03-23T05:31:35;99050.06;;;10.01;89.33
20424;BME280;10371;49.042;8.002;2024-03-23T05:32:35;99062.25;;;10.01;89.24
20424;BME280;10371;49.042;8.002;2024-03-23T05:33:36;99073.31;;;9.93;88.99
20424;BME280;10371;49.042;8.002;2024-03-23T05:34:38;99070.59;;;9.85;88.52
20424;BME280;10371;49.042;8.002;2024-03-23T05:35:38;99076.19;;;9.80;88.91
20424;BME280;10371;49.042;8.002;2024-03-23T05:36:38;99074.44;;;9.81;89.08
20424;BME280;10371;49.042;8.002;2024-03-23T05:37:39;99088.81;;;9.75;89.45
20424;BME280;10371;49.042;8.002;2024-03-23T05:38:39;99096.72;;;9.74;89.91
20424;BME280;10371;49.042;8.002;2024-03-23T05:39:39;99101.66;;;9.77;90.20
20424;BME280;10371;49.042;8.002;2024-03-23T05:40:40;99106.03;;;9.76;90.09
20424;BME280;10371;49.042;8.002;2024-03-23T05:41:40;99110.41;;;9.76;90.04
20424;BME280;10371;49.042;8.002;2024-03-23T05:42:40;99116.44;;;9.76;89.39
20424;BME280;10371;49.042;8.002;2024-03-23T05:43:41;99110.25;;;9.77;89.11
20424;BME280;10371;49.042;8.002;2024-03-23T05:44:45;99114.66;;;9.77;89.07
20424;BME280;10371;49.042;8.002;2024-03-23T05:45:45;99120.13;;;9.74;89.33
20424;BME280;10371;49.042;8.002;2024-03-23T05:46:45;99125.72;;;9.79;89.33
20424;BME280;10371;49.042;8.002;2024-03-23T05:47:49;99120.00;;;9.75;89.34
20424;BME280;10371;49.042;8.002;2024-03-23T05:48:50;99132.03;;;9.76;89.36
20424;BME280;10371;49.042;8.002;2024-03-23T05:49:50;99122.97;;;9.80;89.12
20424;BME280;10371;49.042;8.002;2024-03-23T05:50:52;99125.72;;;9.79;89.10
20424;BME280;10371;49.042;8.002;2024-03-23T05:51:52;99127.94;;;9.83;88.71
20424;BME280;10371;49.042;8.002;2024-03-23T05:52:53;99132.84;;;9.87;88.71
20424;BME280;10371;49.042;8.002;2024-03-23T05:53:53;99132.16;;;9.84;88.59
20424;BME280;10371;49.042;8.002;2024-03-23T05:54:53;99129.69;;;9.83;88.53
20424;BME280;10371;49.042;8.002;2024-03-23T05:56:01;99129.84;;;9.81;88.04
20424;BME280;10371;49.042;8.002;2024-03-23T05:57:04;99135.84;;;9.82;87.80
20424;BME280;10371;49.042;8.002;2024-03-23T05:58:04;99125.19;;;9.85;87.49
20424;BME280;10371;49.042;8.002;2024-03-23T05:59:05;99139.53;;;9.79;87.64
20424;BME280;10371;49.042;8.002;2024-03-23T06:00:05;99144.34;;;9.84;87.74
20424;BME280;10371;49.042;8.002;2024-03-23T06:01:10;99146.78;;;9.85;87.66
20424;BME280;10371;49.042;8.002;2024-03-23T06:02:11;99142.84;;;9.81;87.68
20424;BME280;10371;49.042;8.002;2024-03-23T06:03:11;99139.97;;;9.84;87.59
20424;BME280;10371;49.042;8.002;2024-03-23T06:04:11;99139.69;;;9.88;86.65
20424;BME280;10371;49.042;8.002;2024-03-23T06:05:13;99147.75;;;9.84;86.79
20424;BME280;10371;49.042;8.002;2024-03-23T06:06:13;99150.75;;;9.80;86.61
20424;BME280;10371;49.042;8.002;2024-03-23T06:07:14;99159.13;;;9.83;86.58
20424;BME280;10371;49.042;8.002;2024-03-23T06:08:14;99177.06;;;9.87;86.77
20424;BME280;10371;49.042;8.002;2024-03-23T06:09:15;99178.25;;;9.82;86.27
20424;BME280;10371;49.042;8.002;2024-03-23T06:10:16;99181.84;;;9.81;86.37
20424;BME280;10371;49.042;8.002;2024-03-23T06:11:16;99197.16;;;9.84;86.62
20424;BME280;10371;49.042;8.002;2024-03-23T06:12:16;99195.25;;;9.87;86.76
20424;BME280;10371;49.042;8.002;2024-03-23T06:13:17;99185.13;;;9.83;87.15
20424;BME280;10371;49.042;8.002;2024-03-23T06:14:18;99189.47;;;9.83;87.19
20424;BME280;10371;49.042;8.002;2024-03-23T06:15:19;99195.25;;;9.87;87.23